CheckWX is a tool to help pilots better visualize weather data.  It is not intended as a substitute for an official pre-flight weather briefing.

09:46:56 UTC

KAPN TAF
Alpena County Regional Airport
Alpena, Michigan, USA
KAPN 140520Z 1406/1506 00000KT P6SM OVC028 FM141000 VRB03KT P6SM OVC017 FM141500 31005KT P6SM OVC017 FM150100 30010G19KT P6SM OVC020

Dec-14@
06:00 UTC

Dec-14 @ 06:00 UTC

Dec-14@
10:00 UTC

Dec-14 @ 10:00 UTC

KAPN 140520Z 1406/1506 00000KT P6SM OVC028
Cloud Levels
  • Overcast at 2,800' AGL

Dec-14@
10:00 UTC

Dec-14 @ 10:00 UTC

Dec-14@
15:00 UTC

Dec-14 @ 15:00 UTC

FM141000 VRB03KT P6SM OVC017

From

From Standard forecast or significant change

Wind
  • Variable at 3 KTS
Cloud Levels
  • Overcast at 1,700' AGL

Dec-14@
15:00 UTC

Dec-14 @ 15:00 UTC

Dec-15@
01:00 UTC

Dec-15 @ 01:00 UTC

FM141500 31005KT P6SM OVC017

From

From Standard forecast or significant change

Wind
  • 310° at 5 KTS
Cloud Levels
  • Overcast at 1,700' AGL

Dec-15@
01:00 UTC

Dec-15 @ 01:00 UTC

Dec-15@
06:00 UTC

Dec-15 @ 06:00 UTC

FM150100 30010G19KT P6SM OVC020

From

From Standard forecast or significant change

Wind
  • 300° at 10 KTS
  • {Gusting to 19 KTS
Cloud Levels
  • Overcast at 2,000' AGL